createdAt,value
2023-02-11T00:00:36.178Z,79043.88
2023-02-11T00:03:04.061Z,79047.97
2023-02-11T00:05:31.810Z,79043.88
2023-02-11T00:08:01.048Z,79043.88
2023-02-11T00:10:28.794Z,79041.84
2023-02-11T00:12:56.943Z,79039.81
2023-02-11T00:15:24.732Z,79043.88
2023-02-11T00:17:52.461Z,79037.75
2023-02-11T00:20:20.532Z,79043.88
2023-02-11T00:22:48.314Z,79047.97
2023-02-11T00:25:17.395Z,79035.72
2023-02-11T00:27:45.155Z,79007.16
2023-02-11T00:30:13.526Z,78986.75
2023-02-11T00:32:42.607Z,78964.31
2023-02-11T00:35:10.356Z,78964.31
2023-02-11T00:37:38.173Z,78958.19
2023-02-11T00:40:06.975Z,78958.19
2023-02-11T00:42:37.412Z,78954.09
2023-02-11T00:45:05.999Z,78950.03
2023-02-11T00:47:33.732Z,78954.09
2023-02-11T00:50:01.534Z,78943.91
2023-02-11T00:52:29.867Z,78945.94
2023-02-11T00:54:57.810Z,78950.03
2023-02-11T00:57:25.553Z,78945.94
2023-02-11T00:59:54.683Z,78933.69
2023-02-11T01:02:22.410Z,78917.38
2023-02-11T01:04:50.206Z,78915.34
2023-02-11T01:07:18.046Z,78913.28
2023-02-11T01:09:45.755Z,78917.38
2023-02-11T01:12:13.588Z,78929.63
2023-02-11T01:14:41.363Z,78933.69
2023-02-11T01:17:10.615Z,78943.91
2023-02-11T01:19:38.666Z,78954.09
2023-02-11T01:22:06.656Z,78960.22
2023-02-11T01:24:34.658Z,78956.16
2023-02-11T01:27:02.429Z,78947.97
2023-02-11T01:29:30.317Z,78937.78
2023-02-11T01:31:58.071Z,78929.63
2023-02-11T01:34:27.355Z,78933.69
2023-02-11T01:36:58.453Z,78941.88
2023-02-11T01:39:26.281Z,78945.94
2023-02-11T01:41:54.401Z,78954.09
2023-02-11T01:44:24.531Z,78958.19
2023-02-11T01:46:52.353Z,78958.19
2023-02-11T01:49:24.114Z,78962.28
2023-02-11T01:51:57.708Z,78966.34
2023-02-11T01:54:46.976Z,78962.28
2023-02-11T01:57:25.064Z,78968.38
2023-02-11T02:00:03.904Z,78962.28
2023-02-11T02:02:36.068Z,78968.38
2023-02-11T02:05:09.356Z,78974.50
2023-02-11T02:07:46.830Z,78968.38
2023-02-11T02:10:18.605Z,78970.44
2023-02-11T02:12:46.445Z,78970.44
2023-02-11T02:15:28.772Z,78958.19
2023-02-11T02:18:10.662Z,78958.19
2023-02-11T02:21:16.955Z,78952.06
2023-02-11T02:24:18.136Z,78937.78
2023-02-11T02:27:09.631Z,78931.66
2023-02-11T02:30:04.043Z,78913.28
2023-02-11T02:32:44.398Z,78909.22
2023-02-11T02:35:20.685Z,78909.22
2023-02-11T02:37:56.756Z,78899.00
2023-02-11T02:40:30.394Z,78896.97
2023-02-11T02:42:59.703Z,78892.91
2023-02-11T02:45:27.751Z,78880.66
2023-02-11T02:47:57.092Z,78880.66
2023-02-11T02:50:30.638Z,78876.56
2023-02-11T02:53:12.881Z,78856.16
2023-02-11T02:55:53.816Z,78868.41
2023-02-11T02:58:48.566Z,78876.56
2023-02-11T03:01:26.225Z,78890.84
2023-02-11T03:04:06.969Z,78888.81
2023-02-11T03:06:44.286Z,78892.91
2023-02-11T03:09:18.359Z,78892.91
2023-02-11T03:11:46.624Z,78892.91
2023-02-11T03:14:18.068Z,78888.81
2023-02-11T03:16:47.612Z,78899.00
2023-02-11T03:19:21.526Z,78892.91
2023-02-11T03:21:52.759Z,78892.91
2023-02-11T03:24:25.761Z,78888.81
2023-02-11T03:26:55.538Z,78884.72
2023-02-11T03:29:34.163Z,78884.72
2023-02-11T03:32:08.124Z,78896.97
2023-02-11T03:34:43.483Z,78901.06
2023-02-11T03:37:17.316Z,78888.81
2023-02-11T03:39:49.814Z,78878.59
2023-02-11T03:42:18.579Z,78868.41
2023-02-11T03:44:51.078Z,78866.38
2023-02-11T03:47:22.345Z,78870.44
2023-02-11T03:49:54.295Z,78848.00
2023-02-11T03:52:24.242Z,78852.09
2023-02-11T03:54:56.949Z,78858.19
2023-02-11T03:57:25.284Z,78880.66
2023-02-11T03:59:55.368Z,78888.81
2023-02-11T04:02:25.272Z,78888.81
2023-02-11T04:04:54.519Z,78894.94
2023-02-11T04:07:22.331Z,78896.97
2023-02-11T04:09:50.573Z,78905.13
2023-02-11T04:12:19.714Z,78913.28
2023-02-11T04:14:47.536Z,78913.28
2023-02-11T04:17:15.289Z,78915.34
2023-02-11T04:19:43.189Z,78929.63
2023-02-11T04:22:12.335Z,78925.53
2023-02-11T04:24:40.468Z,78925.53
2023-02-11T04:27:08.254Z,78923.50
2023-02-11T04:29:36.292Z,78925.53
2023-02-11T04:32:04.137Z,78917.38
2023-02-11T04:34:31.983Z,78915.34
2023-02-11T04:36:59.723Z,78907.19
2023-02-11T04:39:28.819Z,78913.28
2023-02-11T04:41:56.666Z,78907.19
2023-02-11T04:44:24.541Z,78903.09
2023-02-11T04:46:52.322Z,78890.84
2023-02-11T04:49:20.139Z,78901.06
2023-02-11T04:51:49.505Z,78876.56
2023-02-11T04:54:17.646Z,78872.50
2023-02-11T04:56:47.177Z,78864.31
2023-02-11T04:59:14.913Z,78864.31
2023-02-11T05:01:42.997Z,78864.31
2023-02-11T05:04:10.808Z,78870.44
2023-02-11T05:06:39.768Z,78866.38
2023-02-11T05:09:07.828Z,78856.16
2023-02-11T05:11:36.670Z,78852.09
2023-02-11T05:14:06.081Z,78845.97
2023-02-11T05:16:34.352Z,78845.97
2023-02-11T05:19:02.303Z,78817.41
2023-02-11T05:21:30.071Z,78823.53
2023-02-11T05:23:58.065Z,78835.75
2023-02-11T05:26:26.438Z,78839.84
2023-02-11T05:28:54.288Z,78833.72
2023-02-11T05:31:23.531Z,78827.59
2023-02-11T05:33:51.456Z,78839.84
2023-02-11T05:36:19.219Z,78839.84
2023-02-11T05:38:46.944Z,78848.00
2023-02-11T05:41:14.702Z,78856.16
2023-02-11T05:43:42.449Z,78854.13
2023-02-11T05:46:10.216Z,78856.16
2023-02-11T05:48:39.342Z,78860.25
2023-02-11T05:51:07.102Z,78837.81
2023-02-11T05:53:34.878Z,78833.72
2023-02-11T05:56:02.964Z,78827.59
2023-02-11T05:58:30.703Z,78827.59
2023-02-11T06:00:58.437Z,78807.19
2023-02-11T06:03:26.258Z,78797.00
2023-02-11T06:05:55.374Z,78794.94
2023-02-11T06:08:23.146Z,78794.94
2023-02-11T06:10:50.929Z,78794.94
2023-02-11T06:13:19.716Z,78774.53
2023-02-11T06:15:57.268Z,78776.59
2023-02-11T06:18:25.433Z,78799.03
2023-02-11T06:20:53.235Z,78792.91
2023-02-11T06:23:22.725Z,78786.78
2023-02-11T06:25:51.322Z,78788.84
2023-02-11T06:28:19.509Z,78786.78
2023-02-11T06:30:47.306Z,78764.34
2023-02-11T06:33:15.116Z,78772.50
2023-02-11T06:35:42.914Z,78772.50
2023-02-11T06:38:10.651Z,78766.38
2023-02-11T06:40:39.801Z,78774.53
2023-02-11T06:43:07.525Z,78776.59
2023-02-11T06:45:35.269Z,78786.78
2023-02-11T06:48:03.069Z,78797.00
2023-02-11T06:50:30.842Z,78780.66
2023-02-11T06:53:00.129Z,78790.88
2023-02-11T06:55:28.039Z,78786.78
2023-02-11T06:57:57.118Z,78784.75
2023-02-11T07:00:25.544Z,78786.78
2023-02-11T07:02:53.716Z,78774.53
2023-02-11T07:05:21.975Z,78786.78
2023-02-11T07:07:49.728Z,78790.88
2023-02-11T07:10:17.620Z,78778.63
2023-02-11T07:12:45.354Z,78774.53
2023-02-11T07:15:14.507Z,78766.38
2023-02-11T07:17:42.344Z,78758.22
2023-02-11T07:20:12.450Z,78752.09
2023-02-11T07:22:40.200Z,78733.75
2023-02-11T07:25:08.432Z,78715.38
2023-02-11T07:27:36.170Z,78709.25
2023-02-11T07:30:06.992Z,78682.72
2023-02-11T07:32:36.521Z,78666.41
2023-02-11T07:35:04.929Z,78668.44
2023-02-11T07:37:34.658Z,78652.13
2023-02-11T07:40:02.604Z,78652.13
2023-02-11T07:42:30.344Z,78643.97
2023-02-11T07:44:58.139Z,78631.72
2023-02-11T07:47:25.957Z,78635.81
2023-02-11T07:49:56.688Z,78648.03
2023-02-11T07:52:24.576Z,78652.13
2023-02-11T07:54:52.352Z,78639.88
2023-02-11T07:57:20.089Z,78656.22
2023-02-11T07:59:47.856Z,78652.13
2023-02-11T08:02:15.681Z,78648.03
2023-02-11T08:04:43.421Z,78660.28
2023-02-11T08:07:16.113Z,78648.03
2023-02-11T08:09:44.152Z,78652.13
2023-02-11T08:12:12.170Z,78656.22
2023-02-11T08:14:39.938Z,78656.22
2023-02-11T08:17:07.732Z,78652.13
2023-02-11T08:19:35.467Z,78639.88
2023-02-11T08:22:03.222Z,78623.56
2023-02-11T08:24:32.449Z,78613.38
2023-02-11T08:27:00.207Z,78613.38
2023-02-11T08:29:27.962Z,78590.91
2023-02-11T08:31:55.866Z,78578.69
2023-02-11T08:34:23.663Z,78558.28
2023-02-11T08:36:51.400Z,78539.91
2023-02-11T08:39:21.570Z,78525.63
2023-02-11T08:41:52.784Z,78535.84
2023-02-11T08:44:22.055Z,78529.72
2023-02-11T08:46:50.379Z,78509.31
2023-02-11T08:49:18.328Z,78517.47
2023-02-11T08:51:46.616Z,78509.31
2023-02-11T08:54:14.405Z,78501.16
2023-02-11T08:56:42.649Z,78513.38
2023-02-11T08:59:14.604Z,78517.47
2023-02-11T09:01:44.185Z,78511.34
2023-02-11T09:04:12.197Z,78505.22
2023-02-11T09:06:40.118Z,78486.88
2023-02-11T09:09:11.106Z,78490.94
2023-02-11T09:11:39.390Z,78462.38
2023-02-11T09:14:07.341Z,78464.41
2023-02-11T09:16:37.484Z,78458.31
2023-02-11T09:19:07.020Z,78448.09
2023-02-11T09:21:34.767Z,78446.06
2023-02-11T09:24:02.766Z,78446.06
2023-02-11T09:26:32.830Z,78423.63
2023-02-11T09:29:00.740Z,78431.78
2023-02-11T09:31:31.044Z,78423.63
2023-02-11T09:34:02.168Z,78397.09
2023-02-11T09:36:32.514Z,78370.56
2023-02-11T09:39:02.509Z,78350.19
2023-02-11T09:42:09.897Z,78344.06
2023-02-11T09:44:40.248Z,78325.69
2023-02-11T09:47:23.637Z,78327.72
2023-02-11T09:49:55.694Z,78323.66
2023-02-11T09:52:32.420Z,78317.53
2023-02-11T09:55:03.096Z,78317.53
2023-02-11T09:57:34.664Z,78321.63
2023-02-11T10:00:03.819Z,78309.38
2023-02-11T10:02:45.041Z,78305.28
2023-02-11T10:05:43.764Z,78305.28
2023-02-11T10:08:18.866Z,78317.53
2023-02-11T10:10:53.710Z,78307.34
2023-02-11T10:13:42.766Z,78301.22
2023-02-11T10:16:29.536Z,78301.22
2023-02-11T10:19:14.119Z,78280.81
2023-02-11T10:21:52.850Z,78264.50
2023-02-11T10:24:21.788Z,78246.13
2023-02-11T10:26:50.097Z,78231.84
2023-02-11T10:29:32.644Z,78207.38
2023-02-11T10:32:04.085Z,78166.56
2023-02-11T10:34:31.986Z,78156.38
2023-02-11T10:37:01.429Z,78150.25
2023-02-11T10:39:29.558Z,78158.41
2023-02-11T10:42:03.584Z,78158.41
2023-02-11T10:44:34.460Z,78170.66
2023-02-11T10:47:10.367Z,78158.41
2023-02-11T10:49:41.017Z,78146.16
2023-02-11T10:52:21.325Z,78152.28
2023-02-11T10:55:04.027Z,78146.16
2023-02-11T10:57:36.044Z,78129.84
2023-02-11T11:00:20.262Z,78129.84
2023-02-11T11:02:55.177Z,78121.69
2023-02-11T11:05:29.963Z,78113.53
2023-02-11T11:08:00.969Z,78119.66
2023-02-11T11:10:37.288Z,78117.59
2023-02-11T11:13:05.092Z,78115.56
2023-02-11T11:15:33.531Z,78109.44
2023-02-11T11:18:21.440Z,78107.41
2023-02-11T11:20:58.371Z,78080.88
2023-02-11T11:23:29.480Z,78084.97
2023-02-11T11:26:05.135Z,78072.72
2023-02-11T11:28:38.808Z,78042.13
2023-02-11T11:31:13.304Z,78019.69
2023-02-11T11:33:44.460Z,77997.25
2023-02-11T11:36:16.624Z,77950.34
2023-02-11T11:38:59.394Z,77936.06
2023-02-11T11:41:29.432Z,77940.13
2023-02-11T11:44:03.345Z,77927.88
2023-02-11T11:46:35.221Z,77946.25
2023-02-11T11:49:14.206Z,77944.22
2023-02-11T11:51:46.365Z,77942.16
2023-02-11T11:54:19.410Z,77938.09
2023-02-11T11:56:54.425Z,77911.56
2023-02-11T11:59:23.269Z,77911.56
2023-02-11T12:02:08.727Z,77899.34
2023-02-11T12:04:46.568Z,77876.91
2023-02-11T12:07:27.736Z,77854.47
2023-02-11T12:10:19.882Z,77860.56
2023-02-11T12:12:55.603Z,77844.25
2023-02-11T12:15:34.075Z,77846.28
2023-02-11T12:18:23.381Z,77836.09
2023-02-11T12:21:08.794Z,77832.03
2023-02-11T12:23:51.860Z,77797.34
2023-02-11T12:26:23.047Z,77811.63
2023-02-11T12:29:05.687Z,77799.38
2023-02-11T12:31:46.910Z,77799.38
2023-02-11T12:34:30.521Z,77801.41
2023-02-11T12:37:08.034Z,77774.91
2023-02-11T12:39:45.350Z,77768.78
2023-02-11T12:42:56.256Z,77770.81
2023-02-11T12:45:35.004Z,77746.34
2023-02-11T12:48:18.070Z,77736.16
2023-02-11T12:50:56.785Z,77738.19
2023-02-11T12:53:45.001Z,77721.88
2023-02-11T12:56:20.597Z,77713.72
2023-02-11T12:58:56.616Z,77728.00
2023-02-11T13:01:28.708Z,77742.28
2023-02-11T13:04:00.822Z,77738.19
2023-02-11T13:06:34.692Z,77728.00
2023-02-11T13:09:05.596Z,77746.34
2023-02-11T13:11:40.835Z,77709.63
2023-02-11T13:14:17.305Z,77730.03
2023-02-11T13:16:47.495Z,77744.31
2023-02-11T13:19:22.410Z,77770.81
2023-02-11T13:22:11.988Z,77778.97
2023-02-11T13:24:45.250Z,77811.63
2023-02-11T13:27:23.971Z,77832.03
2023-02-11T13:30:21.471Z,77823.84
2023-02-11T13:33:06.593Z,77832.03
2023-02-11T13:35:36.243Z,77836.09
2023-02-11T13:38:06.520Z,77840.19
2023-02-11T13:40:36.266Z,77823.84
2023-02-11T13:43:06.094Z,77829.97
2023-02-11T13:45:42.692Z,77825.91
2023-02-11T13:48:18.863Z,77823.84
2023-02-11T13:50:49.379Z,77827.94
2023-02-11T13:53:18.674Z,77838.13
2023-02-11T13:55:49.281Z,77829.97
2023-02-11T13:58:20.116Z,77819.78
2023-02-11T14:00:52.040Z,77815.69
2023-02-11T14:03:44.431Z,77805.50
2023-02-11T14:06:36.242Z,77823.84
2023-02-11T14:09:25.071Z,77836.09
2023-02-11T14:11:55.418Z,77842.22
2023-02-11T14:14:25.435Z,77844.25
2023-02-11T14:17:34.319Z,77848.34
2023-02-11T14:20:24.039Z,77860.56
2023-02-11T14:22:54.253Z,77868.75
2023-02-11T14:25:25.199Z,77885.06
2023-02-11T14:27:57.585Z,77887.09
2023-02-11T14:30:42.877Z,77870.78
2023-02-11T14:33:48.550Z,77870.78
2023-02-11T14:36:35.489Z,77872.81
2023-02-11T14:39:14.891Z,77872.81
2023-02-11T14:41:45.609Z,77868.75
2023-02-11T14:44:17.830Z,77876.91
2023-02-11T14:46:47.176Z,77872.81
2023-02-11T14:49:25.121Z,77872.81
2023-02-11T14:51:56.713Z,77866.69
2023-02-11T14:54:27.388Z,77872.81
2023-02-11T14:57:11.185Z,77872.81
2023-02-11T14:59:39.144Z,77870.78
2023-02-11T15:02:22.593Z,77862.63
2023-02-11T15:04:51.759Z,77864.66
2023-02-11T15:07:19.718Z,77864.66
2023-02-11T15:09:50.690Z,77860.56
2023-02-11T15:12:23.706Z,77862.63
2023-02-11T15:14:55.139Z,77854.47
2023-02-11T15:17:25.913Z,77856.50
2023-02-11T15:19:57.954Z,77860.56
2023-02-11T15:22:27.976Z,77856.50
2023-02-11T15:25:00.639Z,77860.56
2023-02-11T15:27:28.854Z,77860.56
2023-02-11T15:29:56.637Z,77872.81
2023-02-11T15:32:25.995Z,77852.41
2023-02-11T15:34:56.815Z,77862.63
2023-02-11T15:37:27.012Z,77864.66
2023-02-11T15:39:55.604Z,77870.78
2023-02-11T15:42:25.878Z,77880.97
2023-02-11T15:45:12.810Z,77893.22
2023-02-11T15:47:40.786Z,77893.22
2023-02-11T15:50:22.113Z,77909.53
2023-02-11T15:52:50.793Z,77915.66
2023-02-11T15:55:20.088Z,77940.13
2023-02-11T15:57:54.647Z,77917.69
2023-02-11T16:00:25.089Z,77876.91
2023-02-11T16:02:53.499Z,77895.25
2023-02-11T16:05:34.573Z,77909.53
2023-02-11T16:08:14.132Z,77950.34
2023-02-11T16:10:58.204Z,77942.16
2023-02-11T16:13:28.226Z,77934.00
2023-02-11T16:15:58.605Z,77934.00
2023-02-11T16:18:38.619Z,77940.13
2023-02-11T16:21:24.972Z,77956.44
2023-02-11T16:23:57.343Z,77958.50
2023-02-11T16:26:30.498Z,77956.44
2023-02-11T16:29:08.001Z,77972.78
2023-02-11T16:31:38.923Z,77980.94
2023-02-11T16:34:13.218Z,77974.81
2023-02-11T16:36:42.526Z,77966.66
2023-02-11T16:39:11.387Z,77958.50
2023-02-11T16:41:39.224Z,77974.81
2023-02-11T16:44:07.514Z,77968.69
2023-02-11T16:46:35.690Z,77974.81
2023-02-11T16:49:10.877Z,77978.88
2023-02-11T16:51:43.684Z,77991.13
2023-02-11T16:54:16.278Z,77987.06
2023-02-11T16:56:44.577Z,77982.97
2023-02-11T16:59:12.669Z,77982.97
2023-02-11T17:01:42.548Z,77991.13
2023-02-11T17:04:17.116Z,78007.44
2023-02-11T17:06:48.098Z,78023.78
2023-02-11T17:09:20.822Z,78023.78
2023-02-11T17:11:49.392Z,78027.84
2023-02-11T17:14:17.963Z,78036.00
2023-02-11T17:16:47.034Z,78042.13
2023-02-11T17:19:16.941Z,78046.22
2023-02-11T17:21:47.017Z,78056.41
2023-02-11T17:24:15.247Z,78062.53
2023-02-11T17:26:43.761Z,78060.50
2023-02-11T17:29:13.589Z,78064.56
2023-02-11T17:31:42.003Z,78040.09
2023-02-11T17:34:10.174Z,78050.28
2023-02-11T17:36:38.201Z,78054.38
2023-02-11T17:39:08.384Z,78060.50
2023-02-11T17:41:38.381Z,78058.44
2023-02-11T17:44:06.913Z,78046.22
2023-02-11T17:46:35.687Z,78064.56
2023-02-11T17:49:04.220Z,78064.56
2023-02-11T17:51:34.227Z,78056.41
2023-02-11T17:54:03.983Z,78052.31
2023-02-11T17:56:36.215Z,78060.50
2023-02-11T17:59:04.875Z,78056.41
2023-02-11T18:01:34.223Z,78062.53
2023-02-11T18:04:02.315Z,78056.41
2023-02-11T18:06:30.092Z,78068.66
2023-02-11T18:08:59.789Z,78068.66
2023-02-11T18:11:27.966Z,78074.78
2023-02-11T18:13:57.266Z,78068.66
2023-02-11T18:16:27.759Z,78072.72
2023-02-11T18:18:55.933Z,78070.69
2023-02-11T18:21:24.206Z,78070.69
2023-02-11T18:23:52.239Z,78060.50
2023-02-11T18:26:22.282Z,78068.66
2023-02-11T18:28:50.206Z,78072.72
2023-02-11T18:31:20.094Z,78062.53
2023-02-11T18:33:48.463Z,78072.72
2023-02-11T18:36:16.443Z,78070.69
2023-02-11T18:38:45.158Z,78064.56
2023-02-11T18:41:13.845Z,78070.69
2023-02-11T18:43:43.011Z,78058.44
2023-02-11T18:46:12.581Z,78060.50
2023-02-11T18:48:42.030Z,78054.38
2023-02-11T18:51:11.030Z,78052.31
2023-02-11T18:53:39.000Z,78052.31
2023-02-11T18:56:12.426Z,78048.25
2023-02-11T18:58:40.771Z,78036.00
2023-02-11T19:01:13.176Z,78036.00
2023-02-11T19:03:42.963Z,78052.31
2023-02-11T19:06:15.753Z,78056.41
2023-02-11T19:08:43.909Z,78052.31
2023-02-11T19:11:11.920Z,78060.50
2023-02-11T19:13:40.179Z,78044.16
2023-02-11T19:16:11.311Z,78060.50
2023-02-11T19:18:39.688Z,78048.25
2023-02-11T19:21:10.001Z,78060.50
2023-02-11T19:23:38.605Z,78054.38
2023-02-11T19:26:06.697Z,78054.38
2023-02-11T19:28:37.060Z,78064.56
2023-02-11T19:31:10.134Z,78060.50
2023-02-11T19:33:38.103Z,78056.41
2023-02-11T19:36:07.785Z,78068.66
2023-02-11T19:38:37.107Z,78064.56
2023-02-11T19:41:05.261Z,78064.56
2023-02-11T19:43:33.042Z,78070.69
2023-02-11T19:46:02.321Z,78070.69
2023-02-11T19:48:30.277Z,78072.72
2023-02-11T19:50:58.393Z,78066.59
2023-02-11T19:53:26.131Z,78074.78
2023-02-11T19:55:55.245Z,78076.81
2023-02-11T19:58:23.048Z,78072.72
2023-02-11T20:00:50.804Z,78076.81
2023-02-11T20:03:18.604Z,78072.72
2023-02-11T20:05:47.790Z,78072.72
2023-02-11T20:08:17.093Z,78064.56
2023-02-11T20:10:44.894Z,78068.66
2023-02-11T20:13:13.991Z,78072.72
2023-02-11T20:15:41.863Z,78072.72
2023-02-11T20:18:09.656Z,78076.81
2023-02-11T20:20:39.202Z,78074.78
2023-02-11T20:23:07.080Z,78078.84
2023-02-11T20:25:34.901Z,78076.81
2023-02-11T20:28:02.690Z,78078.84
2023-02-11T20:30:31.817Z,78074.78
2023-02-11T20:32:59.674Z,78070.69
2023-02-11T20:35:27.449Z,78068.66
2023-02-11T20:37:55.199Z,78068.66
2023-02-11T20:40:23.019Z,78072.72
2023-02-11T20:42:50.747Z,78084.97
2023-02-11T20:45:18.636Z,78084.97
2023-02-11T20:47:47.774Z,78089.03
2023-02-11T20:50:15.542Z,78082.94
2023-02-11T20:52:43.282Z,78072.72
2023-02-11T20:55:11.076Z,78076.81
2023-02-11T20:57:38.836Z,78082.94
2023-02-11T21:00:08.732Z,78084.97
2023-02-11T21:02:36.548Z,78076.81
2023-02-11T21:05:06.101Z,78076.81
2023-02-11T21:07:33.835Z,78076.81
2023-02-11T21:10:01.616Z,78078.84
2023-02-11T21:12:29.340Z,78066.59
2023-02-11T21:14:57.973Z,78056.41
2023-02-11T21:17:26.514Z,78064.56
2023-02-11T21:19:54.267Z,78064.56
2023-02-11T21:22:23.344Z,78072.72
2023-02-11T21:24:51.310Z,78068.66
2023-02-11T21:27:19.169Z,78080.88
2023-02-11T21:29:54.153Z,78072.72
2023-02-11T21:32:22.616Z,78076.81
2023-02-11T21:34:50.344Z,78078.84
2023-02-11T21:37:18.103Z,78080.88
2023-02-11T21:39:47.284Z,78080.88
2023-02-11T21:42:15.023Z,78076.81
2023-02-11T21:44:42.777Z,78064.56
2023-02-11T21:47:10.544Z,78072.72
2023-02-11T21:49:38.273Z,77938.09
2023-02-11T21:52:06.148Z,77954.41
2023-02-11T21:54:34.040Z,78003.38
2023-02-11T21:57:03.966Z,78023.78
2023-02-11T21:59:32.689Z,78038.06
2023-02-11T22:02:00.482Z,78040.09
2023-02-11T22:04:28.321Z,78052.31
2023-02-11T22:06:56.088Z,78048.25
2023-02-11T22:09:23.813Z,78056.41
2023-02-11T22:11:51.731Z,78064.56
2023-02-11T22:14:20.840Z,78060.50
2023-02-11T22:16:49.147Z,78058.44
2023-02-11T22:19:17.393Z,78060.50
2023-02-11T22:21:45.132Z,78062.53
2023-02-11T22:24:13.065Z,78058.44
2023-02-11T22:26:41.081Z,78066.59
2023-02-11T22:29:08.821Z,78064.56
2023-02-11T22:31:38.022Z,78062.53
2023-02-11T22:34:06.912Z,78064.56
2023-02-11T22:36:36.281Z,78060.50
2023-02-11T22:39:07.131Z,78054.38
2023-02-11T22:41:35.582Z,78054.38
2023-02-11T22:44:03.314Z,78044.16
2023-02-11T22:46:31.428Z,78052.31
2023-02-11T22:49:00.603Z,78066.59
2023-02-11T22:51:30.493Z,78072.72
2023-02-11T22:54:00.098Z,78050.28
2023-02-11T22:56:29.170Z,78056.41
2023-02-11T22:58:58.517Z,78060.50
2023-02-11T23:01:26.523Z,78068.66
2023-02-11T23:03:54.453Z,78072.72
2023-02-11T23:06:23.632Z,78064.56
2023-02-11T23:08:51.411Z,78052.31
2023-02-11T23:11:21.355Z,78060.50
2023-02-11T23:13:51.212Z,78040.09
2023-02-11T23:16:21.093Z,78052.31
2023-02-11T23:18:49.916Z,78056.41
2023-02-11T23:21:21.219Z,78048.25
2023-02-11T23:23:54.607Z,78042.13
2023-02-11T23:26:22.433Z,78048.25
2023-02-11T23:28:50.318Z,78048.25
2023-02-11T23:31:20.095Z,78031.94
2023-02-11T23:33:48.946Z,78031.94
2023-02-11T23:36:17.818Z,78031.94
2023-02-11T23:38:45.915Z,78038.06
2023-02-11T23:41:15.809Z,78040.09
2023-02-11T23:43:43.838Z,78029.88
2023-02-11T23:46:11.945Z,78015.59
2023-02-11T23:48:40.510Z,78033.97
2023-02-11T23:51:09.614Z,78025.81
2023-02-11T23:53:37.546Z,78031.94
2023-02-11T23:56:08.552Z,78036.00
2023-02-11T23:58:38.001Z,78036.00
